Time;durP1;ratioP1;P1;durP2;ratioP2;P2;SDS_P1;SDS_P2;PMS_P1;PMS_P2;Temp;Humidity;BMP_temperature;BMP_pressure;BME280_temperature;BME280_humidity;BME280_pressure;Samples;Min_cycle;Max_cycle;Signal;HPM_P1;HPM_P2
2022/12/04 00:01:18;;;;;;;11.70;5.30;;;;;;;6.98;nan;-24011.81;5031304;28;20196;-79
2022/12/04 00:03:44;;;;;;;6.90;4.53;;;;;;;7.09;nan;-24015.06;5032040;28;20207;-79
2022/12/04 00:06:18;;;;;;;7.00;4.07;;;;;;;6.29;nan;-23992.50;5031342;28;20183;-79
2022/12/04 00:08:45;;;;;;;11.17;4.47;;;;;;;6.94;nan;-24010.81;5034951;28;20294;-79
2022/12/04 00:11:13;;;;;;;13.80;6.60;;;;;;;6.94;nan;-24010.81;5035477;28;20182;-79
2022/12/04 00:13:39;;;;;;;10.97;5.17;;;;;;;7.05;nan;-24013.94;5033992;28;20241;-78
2022/12/04 00:16:11;;;;;;;11.23;4.47;;;;;;;7.08;nan;-24014.66;5035001;28;20183;-78
2022/12/04 00:18:37;;;;;;;11.27;4.80;;;;;;;7.07;nan;-24014.50;5035652;28;20203;-79
2022/12/04 00:21:07;;;;;;;17.53;6.23;;;;;;;7.35;nan;-24022.16;5035374;28;20254;-78
2022/12/04 00:23:34;;;;;;;9.93;6.00;;;;;;;7.26;nan;-24019.63;5035364;28;20175;-78
2022/12/04 00:26:00;;;;;;;11.23;4.70;;;;;;;7.11;nan;-24015.50;5033664;28;20274;-78
2022/12/04 00:28:26;;;;;;;9.07;4.57;;;;;;;6.87;nan;-24008.84;5034805;28;20170;-79
2022/12/04 00:30:51;;;;;;;10.37;5.60;;;;;;;6.89;nan;-24009.25;5035263;28;20171;-79
2022/12/04 00:33:17;;;;;;;9.17;4.83;;;;;;;7.21;nan;-24018.19;5034829;28;20167;-78
2022/12/04 00:35:42;;;;;;;11.87;4.27;;;;;;;7.10;nan;-24015.34;5034929;28;20658;-79
2022/12/04 00:38:07;;;;;;;11.53;4.73;;;;;;;6.87;nan;-24008.69;5033832;28;20688;-79
2022/12/04 00:40:33;;;;;;;22.17;5.40;;;;;;;6.97;nan;-24011.53;5033976;28;20318;-79
2022/12/04 00:42:58;;;;;;;11.90;5.70;;;;;;;7.04;nan;-24013.50;5035310;28;20582;-79
2022/12/04 00:45:23;;;;;;;11.67;4.30;;;;;;;7.02;nan;-24013.09;5034015;28;20180;-79
2022/12/04 00:47:49;;;;;;;12.83;4.90;;;;;;;7.23;nan;-24018.91;5034680;28;20183;-79
2022/12/04 00:50:14;;;;;;;15.73;6.43;;;;;;;7.02;nan;-24013.09;5035092;28;20186;-79
2022/12/04 00:52:40;;;;;;;7.50;4.57;;;;;;;6.79;nan;-24006.56;5034778;28;20651;-78
2022/12/04 00:55:06;;;;;;;10.97;5.70;;;;;;;7.12;nan;-24015.78;5037839;28;20187;-79
2022/12/04 00:57:31;;;;;;;15.97;5.07;;;;;;;6.97;nan;-24011.66;5033853;28;20610;-78
2022/12/04 00:59:57;;;;;;;8.83;4.77;;;;;;;6.87;nan;-24008.69;5033763;28;20183;-78
2022/12/04 01:02:22;;;;;;;11.37;5.80;;;;;;;6.97;nan;-24011.66;5033076;28;20273;-78
2022/12/04 01:04:47;;;;;;;9.63;4.27;;;;;;;6.67;nan;-24003.16;5032998;28;20321;-79
2022/12/04 01:07:13;;;;;;;9.20;5.27;;;;;;;6.83;nan;-24007.56;5034283;28;20642;-78
2022/12/04 01:09:38;;;;;;;10.27;4.60;;;;;;;6.75;nan;-24005.28;5034320;28;20171;-78
2022/12/04 01:12:04;;;;;;;10.30;4.67;;;;;;;6.82;nan;-24007.28;5033640;28;20526;-78
2022/12/04 01:14:29;;;;;;;8.77;4.60;;;;;;;6.50;nan;-23998.34;5033893;28;20170;-78
2022/12/04 01:16:55;;;;;;;9.27;5.67;;;;;;;6.78;nan;-24006.28;5034190;28;20171;-78
2022/12/04 01:19:20;;;;;;;7.80;5.27;;;;;;;6.93;nan;-24010.53;5033329;28;20175;-78
2022/12/04 01:21:46;;;;;;;8.73;3.93;;;;;;;6.86;nan;-24008.56;5034444;28;20261;-78
2022/12/04 01:24:11;;;;;;;8.13;5.00;;;;;;;6.94;nan;-24010.81;5034286;28;20686;-79
2022/12/04 01:26:37;;;;;;;16.27;5.40;;;;;;;6.89;nan;-24009.41;5034173;28;20179;-79
2022/12/04 01:29:02;;;;;;;11.97;5.10;;;;;;;6.61;nan;-24001.47;5032560;28;20677;-79
2022/12/04 01:31:28;;;;;;;7.30;4.20;;;;;;;6.88;nan;-24008.97;5034170;28;20179;-79
2022/12/04 01:33:54;;;;;;;10.07;4.70;;;;;;;6.65;nan;-24002.59;5033736;28;20187;-78
2022/12/04 01:36:22;;;;;;;6.63;4.10;;;;;;;6.85;nan;-24008.25;5034368;28;20172;-78
2022/12/04 01:38:48;;;;;;;8.47;4.70;;;;;;;6.49;nan;-23998.19;5032462;28;20213;-80
2022/12/04 01:41:16;;;;;;;7.27;3.90;;;;;;;6.87;nan;-24008.84;5033862;28;20207;-78
2022/12/04 01:43:42;;;;;;;15.27;5.20;;;;;;;6.58;nan;-24000.75;5033484;28;20171;-79
2022/12/04 01:46:09;;;;;;;11.33;5.07;;;;;;;6.59;nan;-24001.03;5033596;28;20540;-79
2022/12/04 01:48:49;;;;;;;10.13;4.53;;;;;;;6.54;nan;-23999.47;5031623;28;20182;-78
2022/12/04 01:51:20;;;;;;;10.77;4.07;;;;;;;6.68;nan;-24003.44;5033377;28;20219;-79
2022/12/04 01:53:56;;;;;;;10.33;5.03;;;;;;;6.70;nan;-24003.88;5032781;28;20233;-79
2022/12/04 01:56:30;;;;;;;9.17;4.33;;;;;;;6.74;nan;-24005.16;5033774;28;20167;-79
2022/12/04 01:58:59;;;;;;;10.93;4.70;;;;;;;6.73;nan;-24004.72;5033020;28;20164;-79
2022/12/04 02:01:28;;;;;;;7.40;4.30;;;;;;;6.79;nan;-24006.44;5032981;28;20206;-79
2022/12/04 02:03:53;;;;;;;8.30;4.63;;;;;;;6.76;nan;-24005.72;5032175;28;20266;-79
2022/12/04 02:06:19;;;;;;;10.23;4.97;;;;;;;6.77;nan;-24005.84;5032669;28;20262;-79
2022/12/04 02:08:44;;;;;;;7.47;4.30;;;;;;;7.00;nan;-24012.53;5032920;28;20179;-80
2022/12/04 02:11:37;;;;;;;14.87;5.23;;;;;;;6.67;nan;-24003.16;5031824;28;20179;-79
2022/12/04 02:14:25;;;;;;;13.50;5.47;;;;;;;7.03;nan;-24013.22;5031735;28;20232;-79
2022/12/04 02:17:00;;;;;;;12.77;5.17;;;;;;;7.20;nan;-24018.06;5032980;28;20547;-78
2022/12/04 02:19:44;;;;;;;6.37;4.17;;;;;;;7.15;nan;-24016.50;5033194;28;20178;-79
2022/12/04 02:22:37;;;;;;;10.23;5.33;;;;;;;6.96;nan;-24011.38;5033206;28;20206;-79
2022/12/04 02:25:22;;;;;;;10.63;4.73;;;;;;;6.62;nan;-24001.75;5032622;28;20175;-79
2022/12/04 02:27:50;;;;;;;6.47;3.03;;;;;;;7.07;nan;-24014.50;5033097;28;20175;-78
2022/12/04 02:30:15;;;;;;;6.90;4.47;;;;;;;7.01;nan;-24012.81;5037271;28;20180;-78
2022/12/04 02:32:57;;;;;;;11.13;4.87;;;;;;;6.98;nan;-24011.94;5035401;28;20665;-79
2022/12/04 02:35:45;;;;;;;8.13;3.93;;;;;;;6.93;nan;-24010.41;5032689;28;20180;-79
2022/12/04 02:38:20;;;;;;;9.57;5.07;;;;;;;6.92;nan;-24010.25;5032596;28;20194;-79
2022/12/04 02:40:58;;;;;;;12.27;5.10;;;;;;;6.95;nan;-24011.09;5031316;28;20686;-79
2022/12/04 02:43:30;;;;;;;10.27;4.30;;;;;;;6.84;nan;-24008.00;5033145;28;20179;-79
2022/12/04 02:46:08;;;;;;;12.07;4.83;;;;;;;6.83;nan;-24007.56;5032785;28;20172;-78
2022/12/04 02:48:39;;;;;;;16.50;5.47;;;;;;;6.69;nan;-24003.72;5032915;28;20183;-78
2022/12/04 02:51:09;;;;;;;9.80;4.27;;;;;;;6.52;nan;-23998.91;5032990;28;20637;-79
2022/12/04 02:53:41;;;;;;;10.63;5.37;;;;;;;6.68;nan;-24003.44;5030783;28;20190;-79
2022/12/04 02:56:18;;;;;;;8.90;5.43;;;;;;;6.72;nan;-24004.44;5030709;28;20760;-79
2022/12/04 02:58:49;;;;;;;12.00;4.73;;;;;;;6.97;nan;-24011.53;5031989;28;20167;-79
2022/12/04 03:01:22;;;;;;;14.07;4.63;;;;;;;6.89;nan;-24009.41;5012259;28;20195;-79
2022/12/04 03:04:04;;;;;;;9.77;5.57;;;;;;;6.87;nan;-24008.84;5012567;28;20168;-79
2022/12/04 03:06:34;;;;;;;9.83;5.27;;;;;;;6.59;nan;-24000.88;5012007;28;20164;-79
2022/12/04 03:09:08;;;;;;;15.27;5.73;;;;;;;6.96;nan;-24011.38;5012324;28;20180;-79
2022/12/04 03:11:37;;;;;;;7.67;4.47;;;;;;;6.65;nan;-24002.59;5010828;28;20177;-79
2022/12/04 03:14:16;;;;;;;9.07;3.90;;;;;;;6.94;nan;-24010.69;5012023;28;20179;-79
2022/12/04 03:16:42;;;;;;;18.57;5.50;;;;;;;5.93;nan;-23982.44;5012043;28;20164;-79
2022/12/04 03:19:26;;;;;;;8.37;4.40;;;;;;;6.39;nan;-23995.34;5011864;28;20180;-79
2022/12/04 03:21:58;;;;;;;7.50;4.47;;;;;;;6.52;nan;-23999.03;5012050;28;20257;-79
2022/12/04 03:24:28;;;;;;;9.07;4.43;;;;;;;6.46;nan;-23997.34;5009574;28;20689;-78
2022/12/04 03:27:13;;;;;;;11.83;5.07;;;;;;;6.73;nan;-24004.88;5019811;28;20641;-79
2022/12/04 03:30:00;;;;;;;10.07;3.57;;;;;;;6.82;nan;-24007.28;5031705;28;20297;-80
2022/12/04 03:32:33;;;;;;;10.57;5.00;;;;;;;6.39;nan;-23995.34;5031915;28;20247;-79
2022/12/04 03:35:13;;;;;;;7.53;4.20;;;;;;;6.76;nan;-24005.72;5031740;28;20604;-79
2022/12/04 03:37:54;;;;;;;15.53;4.77;;;;;;;6.71;nan;-24004.28;5032098;28;20258;-79
2022/12/04 03:40:42;;;;;;;8.70;4.60;;;;;;;6.81;nan;-24007.13;5031809;28;20207;-78
2022/12/04 03:43:16;;;;;;;12.77;4.40;;;;;;;6.83;nan;-24007.56;5034622;28;20237;-79
2022/12/04 03:45:41;;;;;;;12.13;4.73;;;;;;;6.87;nan;-24008.84;5034311;28;20171;-79
2022/12/04 03:48:41;;;;;;;12.67;4.87;;;;;;;6.87;nan;-24008.69;5035457;28;20163;-78
2022/12/04 03:51:17;;;;;;;9.47;4.63;;;;;;;6.83;nan;-24007.56;5035839;28;20205;-80
2022/12/04 03:53:55;;;;;;;21.20;4.60;;;;;;;6.41;nan;-23995.78;5035910;28;20316;-78
2022/12/04 03:56:25;;;;;;;8.23;4.70;;;;;;;6.65;nan;-24002.72;5035919;28;20166;-79
2022/12/04 03:58:58;;;;;;;11.30;4.23;;;;;;;6.73;nan;-24004.88;5036116;28;20254;-79
2022/12/04 04:01:30;;;;;;;14.70;5.27;;;;;;;6.72;nan;-24004.44;5035250;28;20198;-78
2022/12/04 04:03:58;;;;;;;10.47;4.50;;;;;;;6.45;nan;-23996.91;5035469;28;20175;-79
2022/12/04 04:06:31;;;;;;;7.17;4.27;;;;;;;6.69;nan;-24003.72;5034181;28;20639;-79
2022/12/04 04:09:01;;;;;;;13.70;5.03;;;;;;;6.34;nan;-23993.94;5034118;28;20325;-78
2022/12/04 04:11:33;;;;;;;10.03;4.43;;;;;;;6.71;nan;-24004.28;5035313;28;20643;-78
2022/12/04 04:25:23;;;;;;;10.07;4.50;;;;;;;6.58;nan;-24000.75;5034874;28;20210;-79
2022/12/04 04:27:53;;;;;;;5.43;4.03;;;;;;;6.66;nan;-24003.00;5035397;28;20548;-79
2022/12/04 04:30:19;;;;;;;8.10;4.20;;;;;;;6.34;nan;-23993.94;5035047;28;20634;-79
2022/12/04 04:32:54;;;;;;;9.57;4.80;;;;;;;6.73;nan;-24004.88;5035354;28;20186;-79
2022/12/04 04:35:42;;;;;;;5.90;4.27;;;;;;;6.62;nan;-24001.75;5033670;28;20374;-79
2022/12/04 04:38:22;;;;;;;9.10;3.93;;;;;;;6.72;nan;-24004.56;5035218;28;20183;-79
2022/12/04 04:41:05;;;;;;;10.73;5.30;;;;;;;6.86;nan;-24008.41;5035037;28;20230;-79
2022/12/04 04:43:37;;;;;;;13.97;5.53;;;;;;;6.75;nan;-24005.44;5034480;28;20305;-80
2022/12/04 04:46:10;;;;;;;5.70;3.70;;;;;;;6.67;nan;-24003.16;5035254;28;20270;-78
2022/12/04 04:48:43;;;;;;;7.73;4.17;;;;;;;6.21;nan;-23990.38;5033515;28;20537;-80
2022/12/04 04:51:09;;;;;;;12.20;5.10;;;;;;;6.51;nan;-23998.75;5033237;28;20176;-79
2022/12/04 04:53:47;;;;;;;4.93;3.20;;;;;;;6.17;nan;-23989.25;5034713;28;20183;-78
2022/12/04 04:56:13;;;;;;;10.37;5.30;;;;;;;6.70;nan;-24003.88;5034733;28;20175;-80
2022/12/04 04:58:40;;;;;;;6.33;3.90;;;;;;;6.65;nan;-24002.59;5035120;28;20262;-78
2022/12/04 05:01:11;;;;;;;12.03;4.43;;;;;;;6.50;nan;-23998.34;5034536;28;20199;-80
2022/12/04 05:03:37;;;;;;;6.57;4.27;;;;;;;6.41;nan;-23995.91;5034319;28;20254;-81
2022/12/04 05:06:02;;;;;;;9.33;5.03;;;;;;;6.32;nan;-23993.22;5034888;28;20184;-79
2022/12/04 05:08:28;;;;;;;11.57;3.80;;;;;;;6.36;nan;-23994.34;5034112;28;20547;-80
2022/12/04 05:10:53;;;;;;;8.57;4.40;;;;;;;6.46;nan;-23997.34;5033085;28;20572;-80
2022/12/04 05:13:21;;;;;;;7.23;3.97;;;;;;;6.62;nan;-24001.75;5033079;28;20553;-80
2022/12/04 05:16:01;;;;;;;9.83;5.17;;;;;;;6.61;nan;-24001.47;5032534;28;20203;-79
2022/12/04 05:18:28;;;;;;;8.17;4.77;;;;;;;6.51;nan;-23998.63;5034298;28;20175;-79
2022/12/04 05:20:53;;;;;;;6.73;3.57;;;;;;;6.80;nan;-24006.84;5033492;28;20633;-79
2022/12/04 05:23:19;;;;;;;6.37;3.97;;;;;;;6.69;nan;-24003.59;5034212;28;20207;-80
2022/12/04 05:25:45;;;;;;;9.83;3.63;;;;;;;6.28;nan;-23992.22;5034110;28;20182;-79
2022/12/04 05:28:10;;;;;;;7.23;4.20;;;;;;;5.93;nan;-23982.44;5032531;28;20564;-80
2022/12/04 05:30:36;;;;;;;8.90;4.33;;;;;;;6.26;nan;-23991.53;5034316;28;20266;-80
2022/12/04 05:33:01;;;;;;;8.60;3.80;;;;;;;6.45;nan;-23997.06;5034025;28;20175;-80
2022/12/04 05:35:26;;;;;;;6.77;4.50;;;;;;;6.54;nan;-23999.63;5033942;28;20258;-80
2022/12/04 05:37:52;;;;;;;6.20;3.60;;;;;;;6.46;nan;-23997.34;5032887;28;20183;-80
2022/12/04 05:40:17;;;;;;;8.83;3.93;;;;;;;6.65;nan;-24002.59;5033466;28;20558;-79
2022/12/04 05:42:43;;;;;;;6.37;3.47;;;;;;;6.67;nan;-24003.16;5032562;28;20168;-79
2022/12/04 05:45:08;;;;;;;5.50;3.80;;;;;;;6.39;nan;-23995.34;5033637;28;20183;-79
2022/12/04 05:47:43;;;;;;;10.30;4.10;;;;;;;6.65;nan;-24002.59;5033464;28;20203;-80
2022/12/04 05:50:11;;;;;;;5.60;3.90;;;;;;;6.45;nan;-23996.91;5032373;28;20182;-79
2022/12/04 05:52:36;;;;;;;6.07;3.43;;;;;;;6.53;nan;-23999.31;5034216;28;20236;-79
2022/12/04 05:55:02;;;;;;;10.20;4.30;;;;;;;6.30;nan;-23992.66;5033738;28;20270;-79
2022/12/04 05:57:27;;;;;;;11.43;4.00;;;;;;;6.38;nan;-23994.94;5031846;28;20180;-79
2022/12/04 05:59:52;;;;;;;7.57;4.37;;;;;;;6.43;nan;-23996.50;5033356;28;20203;-79
2022/12/04 06:02:18;;;;;;;10.23;4.80;;;;;;;6.68;nan;-24003.44;5032164;28;20717;-79
2022/12/04 06:04:43;;;;;;;7.17;4.13;;;;;;;6.59;nan;-24000.88;5032029;28;20183;-79
2022/12/04 06:07:09;;;;;;;5.53;3.60;;;;;;;6.55;nan;-23999.75;5033384;28;20289;-80
2022/12/04 06:09:35;;;;;;;7.50;4.23;;;;;;;6.49;nan;-23998.19;5033166;28;20316;-79
2022/12/04 06:12:01;;;;;;;8.80;4.33;;;;;;;6.38;nan;-23994.94;5032296;28;20246;-79
2022/12/04 06:14:26;;;;;;;6.87;3.63;;;;;;;6.31;nan;-23992.94;5036986;28;20190;-79
2022/12/04 06:16:52;;;;;;;5.03;3.77;;;;;;;6.62;nan;-24001.88;5035307;28;20183;-79
2022/12/04 06:19:19;;;;;;;6.60;3.67;;;;;;;6.58;nan;-24000.75;5032933;28;20187;-79
2022/12/04 06:21:47;;;;;;;7.67;4.33;;;;;;;6.46;nan;-23997.19;5031359;28;20294;-80
2022/12/04 06:24:16;;;;;;;6.47;3.93;;;;;;;6.45;nan;-23996.91;5030397;28;21103;-80
2022/12/04 06:26:42;;;;;;;11.27;5.33;;;;;;;6.54;nan;-23999.63;5032122;28;20177;-79
2022/12/04 06:29:09;;;;;;;9.43;4.60;;;;;;;6.33;nan;-23993.50;5032396;28;20262;-80
2022/12/04 06:31:36;;;;;;;7.20;4.30;;;;;;;6.21;nan;-23990.38;5032553;28;20610;-80
2022/12/04 06:34:03;;;;;;;6.97;4.53;;;;;;;6.38;nan;-23994.94;5032450;28;20169;-79
2022/12/04 06:36:29;;;;;;;8.50;4.67;;;;;;;6.61;nan;-24001.59;5032219;28;20164;-79
2022/12/04 06:38:56;;;;;;;9.67;4.57;;;;;;;6.32;nan;-23993.22;5031236;28;20666;-79
2022/12/04 06:41:22;;;;;;;9.93;5.90;;;;;;;6.54;nan;-23999.63;5031884;28;20214;-80
2022/12/04 06:43:49;;;;;;;11.17;4.10;;;;;;;6.52;nan;-23999.03;5030799;28;20187;-78
2022/12/04 06:46:18;;;;;;;8.30;4.67;;;;;;;6.62;nan;-24001.88;5030889;28;20634;-79
2022/12/04 06:48:44;;;;;;;8.77;4.97;;;;;;;6.62;nan;-24001.75;5030910;28;20201;-80
2022/12/04 06:51:12;;;;;;;7.40;4.30;;;;;;;6.56;nan;-24000.03;5031787;28;20619;-79
2022/12/04 06:53:37;;;;;;;7.40;3.70;;;;;;;6.47;nan;-23997.47;5032236;28;20183;-83
2022/12/04 06:56:06;;;;;;;7.40;3.63;;;;;;;6.55;nan;-23999.75;5030992;28;20179;-83
2022/12/04 06:58:31;;;;;;;8.63;4.67;;;;;;;6.57;nan;-24000.31;5030783;28;20247;-82
2022/12/04 07:00:57;;;;;;;10.33;4.50;;;;;;;6.68;nan;-24003.31;5030457;28;20203;-83
2022/12/04 07:03:24;;;;;;;8.30;4.37;;;;;;;6.39;nan;-23995.34;5030353;28;20596;-85
2022/12/04 07:05:50;;;;;;;5.87;3.77;;;;;;;6.53;nan;-23999.19;5032154;28;20183;-85
2022/12/04 07:08:16;;;;;;;10.90;4.60;;;;;;;6.38;nan;-23994.94;5030906;28;20183;-84
2022/12/04 07:10:42;;;;;;;6.20;4.00;;;;;;;6.54;nan;-23999.63;5030696;28;20175;-82
2022/12/04 07:13:07;;;;;;;6.20;4.17;;;;;;;6.37;nan;-23994.66;5030289;28;20198;-81
2022/12/04 07:15:34;;;;;;;8.17;4.47;;;;;;;6.66;nan;-24002.88;5030688;28;20541;-81
2022/12/04 07:18:00;;;;;;;5.53;3.63;;;;;;;6.58;nan;-24000.75;5031293;28;20175;-82
2022/12/04 07:20:26;;;;;;;6.50;3.90;;;;;;;6.62;nan;-24001.75;5032278;28;20186;-83
2022/12/04 07:22:51;;;;;;;7.73;4.03;;;;;;;6.61;nan;-24001.59;5031283;28;20190;-83
2022/12/04 07:25:17;;;;;;;9.23;5.00;;;;;;;6.82;nan;-24007.41;5029290;28;20278;-83
2022/12/04 07:27:43;;;;;;;7.17;3.93;;;;;;;6.38;nan;-23994.94;5030378;28;20187;-83
2022/12/04 07:30:10;;;;;;;13.27;4.13;;;;;;;6.75;nan;-24005.44;5031728;28;20183;-83
2022/12/04 07:32:35;;;;;;;5.63;3.87;;;;;;;6.64;nan;-24002.44;5029952;28;20612;-83
2022/12/04 07:35:02;;;;;;;8.63;4.93;;;;;;;6.46;nan;-23997.34;5029959;28;20214;-83
2022/12/04 07:37:27;;;;;;;7.50;4.00;;;;;;;6.53;nan;-23999.19;5031491;28;20653;-84
2022/12/04 07:39:53;;;;;;;12.80;5.57;;;;;;;6.74;nan;-24005.00;5031713;28;20183;-84
2022/12/04 07:42:19;;;;;;;5.50;3.97;;;;;;;6.44;nan;-23996.63;5030123;28;20222;-84
2022/12/04 07:44:45;;;;;;;6.13;4.27;;;;;;;6.68;nan;-24003.44;5030105;28;20194;-84
2022/12/04 07:47:10;;;;;;;6.50;4.40;;;;;;;6.57;nan;-24000.31;5031681;28;20179;-84
2022/12/04 07:49:36;;;;;;;10.10;4.20;;;;;;;6.62;nan;-24001.88;5030108;28;20179;-85
2022/12/04 07:52:02;;;;;;;7.30;4.27;;;;;;;6.48;nan;-23997.75;5031075;28;20175;-85
2022/12/04 07:54:27;;;;;;;8.70;4.33;;;;;;;6.76;nan;-24005.72;5030026;28;20187;-83
2022/12/04 07:56:52;;;;;;;7.20;3.90;;;;;;;6.81;nan;-24007.13;5029783;28;20190;-82
2022/12/04 07:59:18;;;;;;;10.07;4.67;;;;;;;6.48;nan;-23997.91;5031574;28;20252;-82
2022/12/04 08:01:43;;;;;;;6.03;3.60;;;;;;;6.90;nan;-24009.53;5029176;28;20725;-82
2022/12/04 08:04:10;;;;;;;5.50;3.97;;;;;;;6.43;nan;-23996.50;5029735;28;20176;-82
2022/12/04 08:06:36;;;;;;;5.70;3.17;;;;;;;6.77;nan;-24006.00;5030839;28;20658;-82
2022/12/04 08:09:03;;;;;;;8.67;3.80;;;;;;;6.74;nan;-24005.16;5029800;28;20191;-82
2022/12/04 08:11:28;;;;;;;6.43;3.83;;;;;;;6.56;nan;-24000.03;5029461;28;20642;-82
2022/12/04 08:14:02;;;;;;;5.87;3.77;;;;;;;6.60;nan;-24001.19;5030034;28;20176;-82
2022/12/04 08:16:30;;;;;;;7.63;4.30;;;;;;;6.62;nan;-24001.88;5031434;28;20302;-83
2022/12/04 08:18:55;;;;;;;5.77;3.40;;;;;;;6.46;nan;-23997.34;5029721;28;20670;-85
2022/12/04 08:21:23;;;;;;;8.53;4.43;;;;;;;6.62;nan;-24001.88;5030962;28;20199;-85
2022/12/04 08:23:50;;;;;;;8.07;3.80;;;;;;;6.43;nan;-23996.34;5029641;28;20662;-84
2022/12/04 08:26:17;;;;;;;7.27;4.13;;;;;;;6.62;nan;-24001.88;5029839;28;20531;-82
2022/12/04 08:28:43;;;;;;;11.33;4.70;;;;;;;6.74;nan;-24005.16;5031603;28;20191;-84
2022/12/04 08:31:18;;;;;;;8.53;4.40;;;;;;;6.80;nan;-24006.84;5035101;28;20179;-85
2022/12/04 08:33:45;;;;;;;6.47;4.00;;;;;;;6.74;nan;-24005.16;5032673;28;20655;-85
2022/12/04 08:36:13;;;;;;;9.07;4.30;;;;;;;6.80;nan;-24006.72;5033102;28;20183;-79
2022/12/04 08:38:39;;;;;;;5.87;4.20;;;;;;;6.50;nan;-23998.47;5033221;28;20187;-80
2022/12/04 08:41:06;;;;;;;5.00;3.67;;;;;;;6.54;nan;-23999.63;5034398;28;20206;-80
2022/12/04 08:43:33;;;;;;;7.23;4.03;;;;;;;6.77;nan;-24006.00;5034051;28;20594;-79
2022/12/04 08:46:00;;;;;;;8.23;4.00;;;;;;;6.96;nan;-24011.25;5033108;28;20179;-80
2022/12/04 08:48:26;;;;;;;9.77;4.67;;;;;;;6.84;nan;-24008.00;5033968;28;20179;-79
2022/12/04 08:50:52;;;;;;;8.43;5.07;;;;;;;7.02;nan;-24012.94;5033911;28;20220;-78
2022/12/04 08:53:18;;;;;;;10.10;4.63;;;;;;;6.92;nan;-24010.25;5033339;28;20207;-79
2022/12/04 08:55:44;;;;;;;8.43;5.50;;;;;;;7.04;nan;-24013.50;5033974;28;20179;-79
2022/12/04 08:58:10;;;;;;;9.87;5.40;;;;;;;6.94;nan;-24010.81;5037834;28;20191;-79
2022/12/04 09:00:35;;;;;;;7.30;4.60;;;;;;;6.70;nan;-24003.88;5032708;28;20701;-79
2022/12/04 09:03:01;;;;;;;9.83;4.43;;;;;;;6.89;nan;-24009.25;5031883;28;20717;-79
2022/12/04 09:05:26;;;;;;;7.53;4.50;;;;;;;6.45;nan;-23996.91;5032680;28;20190;-78
2022/12/04 09:07:52;;;;;;;6.30;3.67;;;;;;;6.99;nan;-24012.25;5031734;28;20284;-78
2022/12/04 09:10:17;;;;;;;7.77;4.83;;;;;;;6.55;nan;-23999.91;5040839;28;20651;-79
2022/12/04 09:12:42;;;;;;;7.40;4.40;;;;;;;6.68;nan;-24003.31;5034672;28;20191;-78
2022/12/04 09:15:08;;;;;;;4.97;3.13;;;;;;;6.66;nan;-24002.88;5034582;28;20541;-79
2022/12/04 09:17:37;;;;;;;10.40;4.03;;;;;;;6.90;nan;-24009.53;5031852;28;20628;-79
2022/12/04 09:20:04;;;;;;;9.90;3.87;;;;;;;7.03;nan;-24013.22;5037404;28;20683;-77
2022/12/04 09:22:30;;;;;;;8.40;3.60;;;;;;;6.95;nan;-24011.09;5033350;28;20670;-77
2022/12/04 09:24:55;;;;;;;6.57;4.47;;;;;;;6.94;nan;-24010.81;5036823;28;20202;-79
2022/12/04 09:27:21;;;;;;;5.83;3.60;;;;;;;7.04;nan;-24013.50;5031616;28;20325;-78
2022/12/04 09:29:46;;;;;;;7.67;4.60;;;;;;;7.02;nan;-24013.09;5034095;28;20184;-79
2022/12/04 09:32:12;;;;;;;6.37;4.17;;;;;;;6.94;nan;-24010.81;5031764;28;20621;-79
2022/12/04 09:34:37;;;;;;;7.93;3.80;;;;;;;6.74;nan;-24005.00;5034383;28;20191;-78
2022/12/04 09:37:02;;;;;;;10.57;3.60;;;;;;;6.80;nan;-24006.84;5031966;28;20187;-78
2022/12/04 09:39:28;;;;;;;10.63;4.77;;;;;;;6.56;nan;-24000.19;5033211;28;20325;-79
2022/12/04 09:42:07;;;;;;;5.20;3.63;;;;;;;6.78;nan;-24006.28;5031496;28;20211;-76
2022/12/04 09:44:39;;;;;;;13.80;4.70;;;;;;;6.41;nan;-23995.91;5034029;28;20203;-78
2022/12/04 09:47:14;;;;;;;7.17;4.27;;;;;;;6.75;nan;-24005.28;5024391;28;20183;-77
2022/12/04 09:49:49;;;;;;;5.77;3.97;;;;;;;6.78;nan;-24006.28;5037908;28;20188;-78
2022/12/04 09:52:45;;;;;;;5.97;3.87;;;;;;;6.84;nan;-24007.84;5034001;28;20181;-78
2022/12/04 09:55:25;;;;;;;5.53;3.80;;;;;;;6.83;nan;-24007.56;5036479;28;20223;-77
2022/12/04 09:57:53;;;;;;;12.23;5.67;;;;;;;6.89;nan;-24009.25;5043645;28;20187;-80
2022/12/04 10:00:20;;;;;;;8.33;4.50;;;;;;;6.61;nan;-24001.47;5035080;28;20178;-79
2022/12/04 10:02:54;;;;;;;5.40;4.20;;;;;;;6.89;nan;-24009.41;5031372;28;20233;-78
2022/12/04 10:05:34;;;;;;;11.93;5.40;;;;;;;6.87;nan;-24008.84;5037913;28;20647;-78
2022/12/04 10:08:14;;;;;;;7.40;5.37;;;;;;;7.02;nan;-24012.94;5029159;28;20201;-78
2022/12/04 10:10:52;;;;;;;9.73;4.60;;;;;;;7.04;nan;-24013.50;5033616;28;20198;-77
2022/12/04 10:13:38;;;;;;;10.33;4.80;;;;;;;6.88;nan;-24008.97;5031560;28;20643;-78
2022/12/04 10:16:23;;;;;;;9.03;4.33;;;;;;;6.76;nan;-24005.56;5036111;28;20218;-78
2022/12/04 10:19:22;;;;;;;12.07;4.60;;;;;;;6.98;nan;-24011.94;5031743;28;20198;-78
2022/12/04 10:21:56;;;;;;;5.93;4.20;;;;;;;6.85;nan;-24008.25;5036225;28;20203;-78
2022/12/04 10:24:24;;;;;;;8.13;4.90;;;;;;;6.78;nan;-24006.28;5037434;28;20187;-78
2022/12/04 10:26:51;;;;;;;10.03;5.40;;;;;;;6.84;nan;-24007.84;5039105;28;20267;-79
2022/12/04 10:29:23;;;;;;;5.57;4.00;;;;;;;7.00;nan;-24012.53;5034462;28;20253;-78
2022/12/04 10:31:53;;;;;;;5.87;4.53;;;;;;;6.93;nan;-24010.53;5033420;28;20202;-78
2022/12/04 10:34:24;;;;;;;5.37;4.20;;;;;;;6.99;nan;-24012.09;5037667;28;20187;-78
2022/12/04 10:36:58;;;;;;;7.73;4.20;;;;;;;6.65;nan;-24002.72;5036655;28;20194;-78
2022/12/04 10:39:27;;;;;;;10.53;4.83;;;;;;;6.96;nan;-24011.25;5039389;28;20184;-78
2022/12/04 10:42:18;;;;;;;11.13;4.77;;;;;;;6.94;nan;-24010.69;5041755;28;20736;-78
2022/12/04 10:44:43;;;;;;;10.67;4.47;;;;;;;7.03;nan;-24013.22;5036285;28;20187;-79
2022/12/04 10:47:11;;;;;;;4.83;4.07;;;;;;;6.86;nan;-24008.56;5036493;28;20266;-79
2022/12/04 10:49:37;;;;;;;5.17;3.40;;;;;;;6.55;nan;-23999.91;5042892;28;20174;-78
2022/12/04 10:52:04;;;;;;;7.53;4.20;;;;;;;6.89;nan;-24009.25;5036890;28;20194;-77
2022/12/04 10:54:42;;;;;;;5.50;3.73;;;;;;;6.88;nan;-24009.13;5038840;28;20179;-77
2022/12/04 10:57:12;;;;;;;4.53;3.40;;;;;;;6.93;nan;-24010.41;5036171;28;20249;-78
2022/12/04 10:59:48;;;;;;;4.80;3.70;;;;;;;6.67;nan;-24003.16;5039146;28;20190;-77
2022/12/04 11:02:22;;;;;;;6.83;3.63;;;;;;;6.52;nan;-23998.91;5037894;28;20248;-77
2022/12/04 11:04:55;;;;;;;4.57;3.27;;;;;;;6.68;nan;-24003.44;5041599;28;20662;-79
2022/12/04 11:07:25;;;;;;;4.70;3.63;;;;;;;6.65;nan;-24002.72;5036558;28;20209;-78
2022/12/04 11:10:20;;;;;;;5.83;3.90;;;;;;;6.70;nan;-24003.88;5039037;28;20183;-79
2022/12/04 11:12:57;;;;;;;5.63;4.03;;;;;;;6.08;nan;-23986.56;5018759;28;20195;-78
2022/12/04 11:15:24;;;;;;;5.03;3.67;;;;;;;6.82;nan;-24007.41;5035938;28;20587;-78
2022/12/04 11:17:51;;;;;;;5.53;3.33;;;;;;;6.87;nan;-24008.84;5035662;28;20537;-81
2022/12/04 11:20:26;;;;;;;5.27;3.63;;;;;;;6.77;nan;-24006.00;5035999;28;20211;-80
2022/12/04 11:22:55;;;;;;;5.67;3.10;;;;;;;6.87;nan;-24008.84;5033357;28;20541;-80
2022/12/04 11:25:24;;;;;;;5.30;3.60;;;;;;;7.00;nan;-24012.53;5038027;28;20704;-81
2022/12/04 11:27:54;;;;;;;6.03;3.77;;;;;;;6.96;nan;-24011.38;5036490;28;20253;-78
2022/12/04 11:30:32;;;;;;;5.47;3.97;;;;;;;6.81;nan;-24007.00;5038252;28;20240;-80
2022/12/04 11:32:59;;;;;;;5.73;4.23;;;;;;;6.77;nan;-24005.84;5027914;28;20195;-77
2022/12/04 11:35:27;;;;;;;4.97;3.47;;;;;;;6.80;nan;-24006.84;5033396;28;20244;-79
2022/12/04 11:38:01;;;;;;;5.50;3.07;;;;;;;6.71;nan;-24004.16;5036842;28;20664;-80
2022/12/04 11:40:28;;;;;;;5.20;3.10;;;;;;;6.76;nan;-24005.56;5035643;28;20195;-78
2022/12/04 11:43:09;;;;;;;6.67;3.70;;;;;;;6.89;nan;-24009.25;5039557;28;20190;-79
2022/12/04 11:45:34;;;;;;;4.83;3.43;;;;;;;6.78;nan;-24006.28;5045555;28;20189;-77
2022/12/04 11:48:03;;;;;;;4.63;3.63;;;;;;;6.81;nan;-24007.13;5034128;28;20198;-78
2022/12/04 11:50:34;;;;;;;5.50;3.63;;;;;;;6.82;nan;-24007.28;5038055;28;20179;-79
2022/12/04 11:53:22;;;;;;;4.73;3.60;;;;;;;7.12;nan;-24015.78;5031720;28;20191;-78
2022/12/04 11:56:06;;;;;;;7.60;4.17;;;;;;;6.96;nan;-24011.25;5035615;28;20606;-75
2022/12/04 11:58:50;;;;;;;4.07;3.57;;;;;;;7.03;nan;-24013.22;5022519;28;20183;-79
2022/12/04 12:01:37;;;;;;;6.37;3.67;;;;;;;7.06;nan;-24014.22;5031622;28;20260;-76
2022/12/04 12:04:23;;;;;;;5.10;3.13;;;;;;;7.10;nan;-24015.34;5034200;28;20273;-79
2022/12/04 12:06:57;;;;;;;4.47;3.53;;;;;;;6.94;nan;-24010.69;5033915;28;20639;-76
2022/12/04 12:09:32;;;;;;;4.43;3.50;;;;;;;7.01;nan;-24012.81;5036559;28;20262;-74
2022/12/04 12:12:16;;;;;;;4.70;3.27;;;;;;;6.87;nan;-24008.84;5034358;28;20178;-76
2022/12/04 12:15:05;;;;;;;4.77;3.50;;;;;;;6.98;nan;-24011.81;5042359;28;20174;-75